This is the latest recevied weather packets stored in our database for station/object DB0NLS-15. If no packets are shown the sender has not sent any weather packets the latest 1 day(s).
| Time | Temp. | Humidity | Pressure | Rain* | Wind** | Luminosity | Snow |
|---|---|---|---|---|---|---|---|
| 1778079673 | 18.89° C | 59% | 993.9 hPa | 0 mm | - | - | - |
| 1778077865 | 18.89° C | 60% | 993.9 hPa | 0 mm | - | - | - |
| 1778076660 | 19.44° C | 59% | 993.9 hPa | 0 mm | - | - | - |
| 1778074852 | 18.33° C | 61% | 994.2 hPa | 0 mm | - | - | - |
| 1778073044 | 18.33° C | 61% | 994.2 hPa | 0 mm | - | - | - |
| 1778071839 | 18.33° C | 60% | 994.2 hPa | 0 mm | - | - | - |
| 1778071236 | 18.33° C | 61% | 994.2 hPa | 0 mm | - | - | - |
| 1778070031 | 17.78° C | 62% | 994.1 hPa | 0 mm | - | - | - |
| 1778067620 | 18.33° C | 65% | 994.1 hPa | 0 mm | - | - | - |
| 1778066475 | 18.33° C | 63% | 994.2 hPa | 0 mm | - | - | - |
| 1778065872 | 17.78° C | 65% | 994.1 hPa | 0 mm | - | - | - |
| 1778062859 | 16.67° C | 71% | 994.1 hPa | 0 mm | - | - | - |
| 1778061051 | 17.22° C | 66% | 993.8 hPa | 0 mm | - | - | - |
| 1778059243 | 16.67° C | 68% | 993.4 hPa | 0 mm | - | - | - |
| 1778058038 | 16.67° C | 68% | 993.1 hPa | 0 mm | - | - | - |
| 1778057435 | 16.67° C | 69% | 993 hPa | 0 mm | - | - | - |
| 1778056230 | 16.11° C | 73% | 992.7 hPa | 0 mm | - | - | - |
| 1778055627 | 15.56° C | 74% | 992.4 hPa | 0 mm | - | - | - |
| 1778055025 | 16.11° C | 74% | 992.4 hPa | 0 mm | - | - | - |
| 1778054422 | 16.11° C | 74% | 992.5 hPa | 0 mm | - | - | - |
| 1778053217 | 16.11° C | 74% | 992.7 hPa | 0 mm | - | - | - |
| 1778052674 | 15.56° C | 74% | 992.6 hPa | 0 mm | - | - | - |
| 1778052072 | 15.56° C | 77% | 992.6 hPa | 0 mm | - | - | - |
| 1778051469 | 15.56° C | 78% | 992.6 hPa | 0 mm | - | - | - |
| 1778050264 | 15° C | 78% | 992.6 hPa | 0 mm | - | - | - |
* Rain latest hour (hover to see other rain measurements)
** Current wind speed in m/s (hover to see current wind gust speed)